sensor_id;sensor_type;location;lat;lon;timestamp;pressure;altitude;pressure_sealevel;temperature;humidity
17521;BME280;8878;-33.370;-70.552;2023-01-27T00:02:29;91969.81;;;26.95;25.91
17521;BME280;8878;-33.370;-70.552;2023-01-27T00:04:59;91978.06;;;27.06;25.54
17521;BME280;8878;-33.370;-70.552;2023-01-27T00:07:28;91975.59;;;27.31;25.02
17521;BME280;8878;-33.370;-70.552;2023-01-27T00:09:58;91977.56;;;26.97;25.62
17521;BME280;8878;-33.370;-70.552;2023-01-27T00:12:28;91977.69;;;26.74;25.59
17521;BME280;8878;-33.370;-70.552;2023-01-27T00:15:14;91989.91;;;26.94;26.06
17521;BME280;8878;-33.370;-70.552;2023-01-27T00:17:45;91984.94;;;26.66;26.34
17521;BME280;8878;-33.370;-70.552;2023-01-27T00:20:15;91989.97;;;26.34;25.97
17521;BME280;8878;-33.370;-70.552;2023-01-27T00:23:07;91997.84;;;26.46;25.92
17521;BME280;8878;-33.370;-70.552;2023-01-27T00:25:53;91997.03;;;26.42;26.72
17521;BME280;8878;-33.370;-70.552;2023-01-27T00:28:26;91989.97;;;26.34;26.57
17521;BME280;8878;-33.370;-70.552;2023-01-27T00:30:58;91995.66;;;26.29;26.28
17521;BME280;8878;-33.370;-70.552;2023-01-27T00:33:29;91993.59;;;26.19;26.42
17521;BME280;8878;-33.370;-70.552;2023-01-27T00:35:58;91994.69;;;26.41;26.34
17521;BME280;8878;-33.370;-70.552;2023-01-27T00:38:29;92002.19;;;26.55;25.85
17521;BME280;8878;-33.370;-70.552;2023-01-27T00:40:59;92002.47;;;26.46;25.92
17521;BME280;8878;-33.370;-70.552;2023-01-27T00:43:45;91998.78;;;26.61;26.94
17521;BME280;8878;-33.370;-70.552;2023-01-27T00:46:15;91989.56;;;26.66;28.37
17521;BME280;8878;-33.370;-70.552;2023-01-27T00:48:47;91989.81;;;26.54;27.47
17521;BME280;8878;-33.370;-70.552;2023-01-27T00:51:18;91998.66;;;26.50;27.21
17521;BME280;8878;-33.370;-70.552;2023-01-27T00:53:48;91997.91;;;26.54;27.35
17521;BME280;8878;-33.370;-70.552;2023-01-27T00:56:18;91996.53;;;26.37;27.31
17521;BME280;8878;-33.370;-70.552;2023-01-27T00:58:47;92000.41;;;26.36;27.29
17521;BME280;8878;-33.370;-70.552;2023-01-27T01:01:17;92003.16;;;26.39;28.27
17521;BME280;8878;-33.370;-70.552;2023-01-27T01:03:48;91996.16;;;26.35;28.34
17521;BME280;8878;-33.370;-70.552;2023-01-27T01:06:18;91989.13;;;26.30;28.55
17521;BME280;8878;-33.370;-70.552;2023-01-27T01:08:47;91989.63;;;26.13;30.63
17521;BME280;8878;-33.370;-70.552;2023-01-27T01:11:19;91989.72;;;25.94;31.84
17521;BME280;8878;-33.370;-70.552;2023-01-27T01:13:49;91989.94;;;25.82;32.82
17521;BME280;8878;-33.370;-70.552;2023-01-27T01:16:20;91996.25;;;25.66;32.99
17521;BME280;8878;-33.370;-70.552;2023-01-27T01:18:52;91995.38;;;25.36;32.88
17521;BME280;8878;-33.370;-70.552;2023-01-27T01:21:21;91990.38;;;25.38;33.53
17521;BME280;8878;-33.370;-70.552;2023-01-27T01:23:51;91991.88;;;25.35;34.41
17521;BME280;8878;-33.370;-70.552;2023-01-27T01:26:20;91991.00;;;25.28;33.95
17521;BME280;8878;-33.370;-70.552;2023-01-27T01:28:49;91990.22;;;25.27;34.61
17521;BME280;8878;-33.370;-70.552;2023-01-27T01:31:19;91993.91;;;25.19;34.77
17521;BME280;8878;-33.370;-70.552;2023-01-27T01:33:50;91994.28;;;25.18;34.07
17521;BME280;8878;-33.370;-70.552;2023-01-27T01:36:20;91987.72;;;25.19;34.02
17521;BME280;8878;-33.370;-70.552;2023-01-27T01:38:53;91991.22;;;25.19;33.82
17521;BME280;8878;-33.370;-70.552;2023-01-27T01:41:24;91992.88;;;25.05;33.82
17521;BME280;8878;-33.370;-70.552;2023-01-27T01:43:54;91997.00;;;24.99;33.79
17521;BME280;8878;-33.370;-70.552;2023-01-27T01:46:23;91989.91;;;24.90;33.64
17521;BME280;8878;-33.370;-70.552;2023-01-27T01:48:56;91990.53;;;24.84;33.96
17521;BME280;8878;-33.370;-70.552;2023-01-27T01:51:29;91990.84;;;24.79;34.57
17521;BME280;8878;-33.370;-70.552;2023-01-27T01:54:03;91989.91;;;24.71;34.22
17521;BME280;8878;-33.370;-70.552;2023-01-27T01:56:36;91989.00;;;24.64;34.86
17521;BME280;8878;-33.370;-70.552;2023-01-27T01:59:09;91980.47;;;24.62;34.01
17521;BME280;8878;-33.370;-70.552;2023-01-27T02:01:40;91978.78;;;24.53;35.06
17521;BME280;8878;-33.370;-70.552;2023-01-27T02:04:14;91982.19;;;24.50;34.57
17521;BME280;8878;-33.370;-70.552;2023-01-27T02:06:49;91985.69;;;24.51;34.11
17521;BME280;8878;-33.370;-70.552;2023-01-27T02:09:21;91976.16;;;24.57;33.93
17521;BME280;8878;-33.370;-70.552;2023-01-27T02:11:50;91978.97;;;24.45;34.30
17521;BME280;8878;-33.370;-70.552;2023-01-27T02:14:20;91979.41;;;24.47;33.34
17521;BME280;8878;-33.370;-70.552;2023-01-27T02:16:49;91980.53;;;24.46;34.61
17521;BME280;8878;-33.370;-70.552;2023-01-27T02:19:24;91978.56;;;24.43;33.94
17521;BME280;8878;-33.370;-70.552;2023-01-27T02:21:56;91977.72;;;24.39;33.80
17521;BME280;8878;-33.370;-70.552;2023-01-27T02:24:31;91973.88;;;24.40;32.74
17521;BME280;8878;-33.370;-70.552;2023-01-27T02:27:04;91969.91;;;24.34;33.81
17521;BME280;8878;-33.370;-70.552;2023-01-27T02:29:33;91963.63;;;24.10;35.93
17521;BME280;8878;-33.370;-70.552;2023-01-27T02:32:02;91964.88;;;23.97;36.62
17521;BME280;8878;-33.370;-70.552;2023-01-27T02:34:34;91958.25;;;23.95;35.92
17521;BME280;8878;-33.370;-70.552;2023-01-27T02:37:06;91959.03;;;23.95;36.11
17521;BME280;8878;-33.370;-70.552;2023-01-27T02:39:40;91954.50;;;23.80;36.42
17521;BME280;8878;-33.370;-70.552;2023-01-27T02:42:13;91961.72;;;23.76;36.78
17521;BME280;8878;-33.370;-70.552;2023-01-27T02:44:44;91951.38;;;23.78;35.76
17521;BME280;8878;-33.370;-70.552;2023-01-27T02:47:14;91951.56;;;23.69;35.31
17521;BME280;8878;-33.370;-70.552;2023-01-27T02:49:43;91947.25;;;23.65;36.09
17521;BME280;8878;-33.370;-70.552;2023-01-27T02:52:12;91947.59;;;23.63;35.35
17521;BME280;8878;-33.370;-70.552;2023-01-27T02:54:42;91948.44;;;23.67;35.01
17521;BME280;8878;-33.370;-70.552;2023-01-27T02:57:13;91953.09;;;23.51;36.89
17521;BME280;8878;-33.370;-70.552;2023-01-27T02:59:43;91951.19;;;23.52;36.14
17521;BME280;8878;-33.370;-70.552;2023-01-27T03:02:12;91940.63;;;23.47;36.08
17521;BME280;8878;-33.370;-70.552;2023-01-27T03:04:48;91944.38;;;23.42;36.39
17521;BME280;8878;-33.370;-70.552;2023-01-27T03:07:17;91942.22;;;23.48;35.64
17521;BME280;8878;-33.370;-70.552;2023-01-27T03:09:46;91942.47;;;23.42;36.55
17521;BME280;8878;-33.370;-70.552;2023-01-27T03:12:18;91936.19;;;23.38;36.18
17521;BME280;8878;-33.370;-70.552;2023-01-27T03:14:50;91936.31;;;23.26;36.14
17521;BME280;8878;-33.370;-70.552;2023-01-27T03:17:36;91929.97;;;23.03;36.37
17521;BME280;8878;-33.370;-70.552;2023-01-27T03:20:22;91931.69;;;22.95;37.11
17521;BME280;8878;-33.370;-70.552;2023-01-27T03:22:52;91933.09;;;22.89;37.47
17521;BME280;8878;-33.370;-70.552;2023-01-27T03:25:22;91928.03;;;22.88;37.28
17521;BME280;8878;-33.370;-70.552;2023-01-27T03:27:53;91929.09;;;22.83;36.44
17521;BME280;8878;-33.370;-70.552;2023-01-27T03:30:25;91936.97;;;22.76;36.63
17521;BME280;8878;-33.370;-70.552;2023-01-27T03:32:54;91933.94;;;22.78;35.83
17521;BME280;8878;-33.370;-70.552;2023-01-27T03:35:25;91925.56;;;22.67;36.20
17521;BME280;8878;-33.370;-70.552;2023-01-27T03:38:00;91933.81;;;22.58;38.02
17521;BME280;8878;-33.370;-70.552;2023-01-27T03:40:46;91935.34;;;22.59;36.85
17521;BME280;8878;-33.370;-70.552;2023-01-27T03:43:33;91934.59;;;22.59;35.97
17521;BME280;8878;-33.370;-70.552;2023-01-27T03:46:19;91932.25;;;22.57;36.35
17521;BME280;8878;-33.370;-70.552;2023-01-27T03:48:51;91929.13;;;22.55;36.03
17521;BME280;8878;-33.370;-70.552;2023-01-27T03:51:21;91925.19;;;22.53;36.40
17521;BME280;8878;-33.370;-70.552;2023-01-27T03:53:51;91925.78;;;22.46;36.46
17521;BME280;8878;-33.370;-70.552;2023-01-27T03:56:21;91936.34;;;22.39;35.88
17521;BME280;8878;-33.370;-70.552;2023-01-27T03:58:52;91933.44;;;22.44;35.48
17521;BME280;8878;-33.370;-70.552;2023-01-27T04:01:23;91930.91;;;22.36;36.23
17521;BME280;8878;-33.370;-70.552;2023-01-27T04:03:52;91920.94;;;22.36;35.89
17521;BME280;8878;-33.370;-70.552;2023-01-27T04:06:39;91919.63;;;22.30;36.35
17521;BME280;8878;-33.370;-70.552;2023-01-27T04:09:25;91922.09;;;22.23;36.75
17521;BME280;8878;-33.370;-70.552;2023-01-27T04:11:56;91915.16;;;22.22;36.00
17521;BME280;8878;-33.370;-70.552;2023-01-27T04:14:28;91923.91;;;22.19;36.63
17521;BME280;8878;-33.370;-70.552;2023-01-27T04:16:59;91919.56;;;22.14;37.14
17521;BME280;8878;-33.370;-70.552;2023-01-27T04:19:29;91920.81;;;22.05;37.65
17521;BME280;8878;-33.370;-70.552;2023-01-27T04:21:59;91921.72;;;22.09;37.05
17521;BME280;8878;-33.370;-70.552;2023-01-27T04:24:29;91919.56;;;22.14;35.60
17521;BME280;8878;-33.370;-70.552;2023-01-27T04:26:59;91920.16;;;22.08;38.46
17521;BME280;8878;-33.370;-70.552;2023-01-27T04:29:32;91917.00;;;22.06;37.51
17521;BME280;8878;-33.370;-70.552;2023-01-27T04:32:02;91913.78;;;22.00;37.76
17521;BME280;8878;-33.370;-70.552;2023-01-27T04:34:32;91921.16;;;22.03;36.73
17521;BME280;8878;-33.370;-70.552;2023-01-27T04:37:03;91913.78;;;22.00;37.77
17521;BME280;8878;-33.370;-70.552;2023-01-27T04:39:33;91918.13;;;22.05;37.12
17521;BME280;8878;-33.370;-70.552;2023-01-27T04:42:02;91916.34;;;22.09;37.67
17521;BME280;8878;-33.370;-70.552;2023-01-27T04:44:34;91915.97;;;22.10;38.48
17521;BME280;8878;-33.370;-70.552;2023-01-27T04:47:04;91920.56;;;22.10;39.35
17521;BME280;8878;-33.370;-70.552;2023-01-27T04:49:33;91919.50;;;21.99;39.75
17521;BME280;8878;-33.370;-70.552;2023-01-27T04:52:04;91916.44;;;22.12;39.84
17521;BME280;8878;-33.370;-70.552;2023-01-27T04:54:33;91916.47;;;22.00;39.29
17521;BME280;8878;-33.370;-70.552;2023-01-27T04:57:03;91920.16;;;22.08;38.99
17521;BME280;8878;-33.370;-70.552;2023-01-27T04:59:35;91914.34;;;21.94;39.31
17521;BME280;8878;-33.370;-70.552;2023-01-27T05:02:04;91915.72;;;21.87;39.73
17521;BME280;8878;-33.370;-70.552;2023-01-27T05:04:34;91918.31;;;21.72;39.63
17521;BME280;8878;-33.370;-70.552;2023-01-27T05:07:05;91912.16;;;21.71;38.70
17521;BME280;8878;-33.370;-70.552;2023-01-27T05:09:34;91919.94;;;21.88;38.83
17521;BME280;8878;-33.370;-70.552;2023-01-27T05:12:05;91911.94;;;21.64;39.23
17521;BME280;8878;-33.370;-70.552;2023-01-27T05:14:36;91907.66;;;21.75;38.72
17521;BME280;8878;-33.370;-70.552;2023-01-27T05:17:05;91907.25;;;21.61;39.22
17521;BME280;8878;-33.370;-70.552;2023-01-27T05:19:34;91910.19;;;21.56;38.54
17521;BME280;8878;-33.370;-70.552;2023-01-27T05:22:04;91905.47;;;21.53;38.45
17521;BME280;8878;-33.370;-70.552;2023-01-27T05:24:33;91911.53;;;21.50;38.40
17521;BME280;8878;-33.370;-70.552;2023-01-27T05:27:03;91902.47;;;21.42;38.52
17521;BME280;8878;-33.370;-70.552;2023-01-27T05:29:34;91901.69;;;21.42;37.84
17521;BME280;8878;-33.370;-70.552;2023-01-27T05:32:03;91900.38;;;21.36;37.40
17521;BME280;8878;-33.370;-70.552;2023-01-27T05:34:33;91899.25;;;21.25;37.91
17521;BME280;8878;-33.370;-70.552;2023-01-27T05:37:02;91890.53;;;21.16;37.75
17521;BME280;8878;-33.370;-70.552;2023-01-27T05:39:31;91888.97;;;21.15;37.68
17521;BME280;8878;-33.370;-70.552;2023-01-27T05:42:01;91889.53;;;21.08;38.12
17521;BME280;8878;-33.370;-70.552;2023-01-27T05:44:30;91884.72;;;21.01;38.11
17521;BME280;8878;-33.370;-70.552;2023-01-27T05:47:01;91879.13;;;20.94;38.25
17521;BME280;8878;-33.370;-70.552;2023-01-27T05:49:31;91880.00;;;20.98;37.91
17521;BME280;8878;-33.370;-70.552;2023-01-27T05:52:01;91885.28;;;20.95;38.44
17521;BME280;8878;-33.370;-70.552;2023-01-27T05:54:30;91880.94;;;21.02;37.59
17521;BME280;8878;-33.370;-70.552;2023-01-27T05:56:59;91871.09;;;20.94;35.77
17521;BME280;8878;-33.370;-70.552;2023-01-27T05:59:29;91871.31;;;21.01;38.04
17521;BME280;8878;-33.370;-70.552;2023-01-27T06:02:00;91871.72;;;21.03;39.35
17521;BME280;8878;-33.370;-70.552;2023-01-27T06:04:30;91878.72;;;21.17;40.25
17521;BME280;8878;-33.370;-70.552;2023-01-27T06:06:59;91873.31;;;21.29;39.47
17521;BME280;8878;-33.370;-70.552;2023-01-27T06:09:29;91877.09;;;21.40;39.01
17521;BME280;8878;-33.370;-70.552;2023-01-27T06:11:58;91862.81;;;21.36;38.22
17521;BME280;8878;-33.370;-70.552;2023-01-27T06:14:27;91860.00;;;21.44;40.34
17521;BME280;8878;-33.370;-70.552;2023-01-27T06:17:00;91862.25;;;21.30;42.31
17521;BME280;8878;-33.370;-70.552;2023-01-27T06:19:30;91859.94;;;21.17;43.16
17521;BME280;8878;-33.370;-70.552;2023-01-27T06:21:59;91861.00;;;21.16;43.53
17521;BME280;8878;-33.370;-70.552;2023-01-27T06:24:29;91862.00;;;21.11;41.91
17521;BME280;8878;-33.370;-70.552;2023-01-27T06:26:58;91862.78;;;21.11;41.07
17521;BME280;8878;-33.370;-70.552;2023-01-27T06:29:27;91866.84;;;21.18;40.21
17521;BME280;8878;-33.370;-70.552;2023-01-27T06:31:56;91862.03;;;20.87;38.91
17521;BME280;8878;-33.370;-70.552;2023-01-27T06:34:27;91866.72;;;21.02;35.92
17521;BME280;8878;-33.370;-70.552;2023-01-27T06:36:57;91863.34;;;21.05;37.28
17521;BME280;8878;-33.370;-70.552;2023-01-27T06:39:26;91868.06;;;21.20;38.21
17521;BME280;8878;-33.370;-70.552;2023-01-27T06:41:55;91869.31;;;21.23;38.15
17521;BME280;8878;-33.370;-70.552;2023-01-27T06:44:25;91865.47;;;21.11;38.99
17521;BME280;8878;-33.370;-70.552;2023-01-27T06:46:54;91859.25;;;20.95;38.37
17521;BME280;8878;-33.370;-70.552;2023-01-27T06:49:26;91862.47;;;21.01;40.67
17521;BME280;8878;-33.370;-70.552;2023-01-27T06:51:55;91865.72;;;20.94;40.74
17521;BME280;8878;-33.370;-70.552;2023-01-27T06:54:25;91867.94;;;21.04;42.11
17521;BME280;8878;-33.370;-70.552;2023-01-27T06:56:54;91862.34;;;20.97;41.33
17521;BME280;8878;-33.370;-70.552;2023-01-27T06:59:23;91860.13;;;20.99;41.57
17521;BME280;8878;-33.370;-70.552;2023-01-27T07:01:53;91862.13;;;20.90;41.21
17521;BME280;8878;-33.370;-70.552;2023-01-27T07:04:23;91860.56;;;20.89;41.79
17521;BME280;8878;-33.370;-70.552;2023-01-27T07:06:54;91862.03;;;20.99;40.65
17521;BME280;8878;-33.370;-70.552;2023-01-27T07:09:23;91858.34;;;20.91;41.05
17521;BME280;8878;-33.370;-70.552;2023-01-27T07:11:52;91863.72;;;20.79;41.39
17521;BME280;8878;-33.370;-70.552;2023-01-27T07:14:22;91863.38;;;20.81;40.50
17521;BME280;8878;-33.370;-70.552;2023-01-27T07:16:51;91867.03;;;20.76;41.05
17521;BME280;8878;-33.370;-70.552;2023-01-27T07:19:20;91861.69;;;20.64;40.71
17521;BME280;8878;-33.370;-70.552;2023-01-27T07:21:49;91858.56;;;20.86;39.73
17521;BME280;8878;-33.370;-70.552;2023-01-27T07:24:20;91859.22;;;20.71;40.23
17521;BME280;8878;-33.370;-70.552;2023-01-27T07:26:51;91860.34;;;20.58;40.13
17521;BME280;8878;-33.370;-70.552;2023-01-27T07:29:20;91862.56;;;20.56;39.25
17521;BME280;8878;-33.370;-70.552;2023-01-27T07:31:49;91863.13;;;20.49;39.87
17521;BME280;8878;-33.370;-70.552;2023-01-27T07:34:18;91867.81;;;20.52;40.62
17521;BME280;8878;-33.370;-70.552;2023-01-27T07:36:48;91867.69;;;20.37;40.50
17521;BME280;8878;-33.370;-70.552;2023-01-27T07:39:17;91862.97;;;20.33;40.53
17521;BME280;8878;-33.370;-70.552;2023-01-27T07:41:49;91870.69;;;20.35;40.95
17521;BME280;8878;-33.370;-70.552;2023-01-27T07:44:20;91855.22;;;20.32;41.36
17521;BME280;8878;-33.370;-70.552;2023-01-27T07:46:50;91863.03;;;20.25;41.97
17521;BME280;8878;-33.370;-70.552;2023-01-27T07:49:19;91866.16;;;20.27;42.80
17521;BME280;8878;-33.370;-70.552;2023-01-27T07:51:48;91856.22;;;20.27;41.92
17521;BME280;8878;-33.370;-70.552;2023-01-27T07:54:18;91865.28;;;20.23;41.66
17521;BME280;8878;-33.370;-70.552;2023-01-27T07:56:49;91866.16;;;20.27;42.23
17521;BME280;8878;-33.370;-70.552;2023-01-27T07:59:18;91861.47;;;20.24;42.71
17521;BME280;8878;-33.370;-70.552;2023-01-27T08:01:47;91863.38;;;20.23;43.41
17521;BME280;8878;-33.370;-70.552;2023-01-27T08:04:16;91862.13;;;20.21;43.20
17521;BME280;8878;-33.370;-70.552;2023-01-27T08:06:46;91864.72;;;20.17;40.14
17521;BME280;8878;-33.370;-70.552;2023-01-27T08:09:15;91861.91;;;20.26;42.43
17521;BME280;8878;-33.370;-70.552;2023-01-27T08:11:44;91864.81;;;20.21;42.55
17521;BME280;8878;-33.370;-70.552;2023-01-27T08:14:15;91858.22;;;20.18;43.78
17521;BME280;8878;-33.370;-70.552;2023-01-27T08:16:45;91859.59;;;20.24;43.71
17521;BME280;8878;-33.370;-70.552;2023-01-27T08:19:14;91861.25;;;20.17;43.51
17521;BME280;8878;-33.370;-70.552;2023-01-27T08:21:43;91868.69;;;20.11;43.85
17521;BME280;8878;-33.370;-70.552;2023-01-27T08:24:12;91869.03;;;20.10;43.33
17521;BME280;8878;-33.370;-70.552;2023-01-27T08:26:42;91860.22;;;20.09;43.37
17521;BME280;8878;-33.370;-70.552;2023-01-27T08:29:11;91871.47;;;20.03;43.50
17521;BME280;8878;-33.370;-70.552;2023-01-27T08:31:42;91869.31;;;19.96;44.74
17521;BME280;8878;-33.370;-70.552;2023-01-27T08:34:12;91867.28;;;19.93;44.25
17521;BME280;8878;-33.370;-70.552;2023-01-27T08:36:42;91864.94;;;19.91;43.24
17521;BME280;8878;-33.370;-70.552;2023-01-27T08:39:12;91865.88;;;19.96;43.18
17521;BME280;8878;-33.370;-70.552;2023-01-27T08:41:41;91867.41;;;19.97;43.38
17521;BME280;8878;-33.370;-70.552;2023-01-27T08:44:10;91868.31;;;20.01;43.20
17521;BME280;8878;-33.370;-70.552;2023-01-27T08:46:41;91872.31;;;19.94;43.87
17521;BME280;8878;-33.370;-70.552;2023-01-27T08:49:11;91870.88;;;19.97;43.84
17521;BME280;8878;-33.370;-70.552;2023-01-27T08:51:41;91878.50;;;20.07;44.30
17521;BME280;8878;-33.370;-70.552;2023-01-27T08:54:10;91873.69;;;20.01;44.24
17521;BME280;8878;-33.370;-70.552;2023-01-27T08:56:40;91876.28;;;20.09;44.58
17521;BME280;8878;-33.370;-70.552;2023-01-27T08:59:10;91878.59;;;20.11;45.18
17521;BME280;8878;-33.370;-70.552;2023-01-27T09:01:39;91883.22;;;20.10;45.14
17521;BME280;8878;-33.370;-70.552;2023-01-27T09:04:11;91886.78;;;20.14;45.67
17521;BME280;8878;-33.370;-70.552;2023-01-27T09:06:41;91888.22;;;20.12;45.09
17521;BME280;8878;-33.370;-70.552;2023-01-27T09:09:10;91888.56;;;20.10;44.96
17521;BME280;8878;-33.370;-70.552;2023-01-27T09:11:41;91893.00;;;20.06;45.34
17521;BME280;8878;-33.370;-70.552;2023-01-27T09:14:11;91885.75;;;20.07;46.38
17521;BME280;8878;-33.370;-70.552;2023-01-27T09:16:40;91889.44;;;20.02;46.57
17521;BME280;8878;-33.370;-70.552;2023-01-27T09:19:11;91893.81;;;19.86;47.07
17521;BME280;8878;-33.370;-70.552;2023-01-27T09:21:41;91895.38;;;19.87;47.27
17521;BME280;8878;-33.370;-70.552;2023-01-27T09:24:10;91900.94;;;19.82;47.68
17521;BME280;8878;-33.370;-70.552;2023-01-27T09:26:43;91903.88;;;19.89;46.35
17521;BME280;8878;-33.370;-70.552;2023-01-27T09:29:12;91899.41;;;19.93;45.13
17521;BME280;8878;-33.370;-70.552;2023-01-27T09:31:41;91905.25;;;19.95;45.01
17521;BME280;8878;-33.370;-70.552;2023-01-27T09:34:12;91912.03;;;19.92;44.71
17521;BME280;8878;-33.370;-70.552;2023-01-27T09:36:47;91910.19;;;19.84;45.42
17521;BME280;8878;-33.370;-70.552;2023-01-27T09:39:19;91917.44;;;19.84;44.92
17521;BME280;8878;-33.370;-70.552;2023-01-27T09:42:11;91914.66;;;19.80;45.13
17521;BME280;8878;-33.370;-70.552;2023-01-27T09:45:04;91913.41;;;19.78;45.46
17521;BME280;8878;-33.370;-70.552;2023-01-27T09:47:52;91921.06;;;19.67;45.92
17521;BME280;8878;-33.370;-70.552;2023-01-27T09:50:38;91912.50;;;19.74;44.89
17521;BME280;8878;-33.370;-70.552;2023-01-27T09:53:32;91921.91;;;19.80;44.88
17521;BME280;8878;-33.370;-70.552;2023-01-27T09:56:08;91924.69;;;19.83;44.44
17521;BME280;8878;-33.370;-70.552;2023-01-27T09:59:00;91932.72;;;19.83;45.07
17521;BME280;8878;-33.370;-70.552;2023-01-27T10:01:43;91935.34;;;19.71;44.92
17521;BME280;8878;-33.370;-70.552;2023-01-27T10:04:29;91937.50;;;19.78;45.44
17521;BME280;8878;-33.370;-70.552;2023-01-27T10:07:23;91937.28;;;19.83;46.48
17521;BME280;8878;-33.370;-70.552;2023-01-27T10:10:13;91930.00;;;19.71;46.94
17521;BME280;8878;-33.370;-70.552;2023-01-27T10:13:07;91928.94;;;19.64;46.97
17521;BME280;8878;-33.370;-70.552;2023-01-27T10:15:51;91940.56;;;19.68;47.08
17521;BME280;8878;-33.370;-70.552;2023-01-27T10:18:34;91939.28;;;19.74;46.64
17521;BME280;8878;-33.370;-70.552;2023-01-27T10:21:13;91949.03;;;19.70;46.60
17521;BME280;8878;-33.370;-70.552;2023-01-27T10:23:53;91949.97;;;19.74;46.39
17521;BME280;8878;-33.370;-70.552;2023-01-27T10:26:29;91953.56;;;19.78;46.15
17521;BME280;8878;-33.370;-70.552;2023-01-27T10:29:05;91957.91;;;19.82;46.24
17521;BME280;8878;-33.370;-70.552;2023-01-27T10:31:39;91961.47;;;19.74;46.13
17521;BME280;8878;-33.370;-70.552;2023-01-27T10:34:21;91962.53;;;19.82;46.06
17521;BME280;8878;-33.370;-70.552;2023-01-27T10:37:05;91961.59;;;19.78;44.99
17521;BME280;8878;-33.370;-70.552;2023-01-27T10:39:41;91965.88;;;19.91;44.62
17521;BME280;8878;-33.370;-70.552;2023-01-27T10:42:24;91957.94;;;20.03;45.30
17521;BME280;8878;-33.370;-70.552;2023-01-27T10:45:10;91953.03;;;20.05;45.62
17521;BME280;8878;-33.370;-70.552;2023-01-27T10:47:57;91961.31;;;20.12;44.83
17521;BME280;8878;-33.370;-70.552;2023-01-27T10:50:34;91969.34;;;20.12;44.33
17521;BME280;8878;-33.370;-70.552;2023-01-27T10:53:11;91962.50;;;20.23;43.29
17521;BME280;8878;-33.370;-70.552;2023-01-27T10:55:48;91962.09;;;20.33;43.16
17521;BME280;8878;-33.370;-70.552;2023-01-27T10:58:31;91972.41;;;20.44;43.09
17521;BME280;8878;-33.370;-70.552;2023-01-27T11:01:05;91963.50;;;20.52;42.37
17521;BME280;8878;-33.370;-70.552;2023-01-27T11:03:37;91961.75;;;20.68;41.60
17521;BME280;8878;-33.370;-70.552;2023-01-27T11:06:12;91958.97;;;20.77;41.47
17521;BME280;8878;-33.370;-70.552;2023-01-27T11:08:45;91962.22;;;20.82;41.05
17521;BME280;8878;-33.370;-70.552;2023-01-27T11:11:17;91957.13;;;20.44;41.72
17521;BME280;8878;-33.370;-70.552;2023-01-27T11:14:14;91955.78;;;20.50;41.50
17521;BME280;8878;-33.370;-70.552;2023-01-27T11:16:47;91964.81;;;20.79;41.52
17521;BME280;8878;-33.370;-70.552;2023-01-27T11:19:27;91962.28;;;21.06;40.96
17521;BME280;8878;-33.370;-70.552;2023-01-27T11:21:59;91966.16;;;20.97;41.15
17521;BME280;8878;-33.370;-70.552;2023-01-27T11:24:35;91975.34;;;20.96;41.01
17521;BME280;8878;-33.370;-70.552;2023-01-27T11:27:16;91968.31;;;21.16;39.17
17521;BME280;8878;-33.370;-70.552;2023-01-27T11:29:53;91968.22;;;21.48;37.63
17521;BME280;8878;-33.370;-70.552;2023-01-27T11:32:33;91970.31;;;21.67;35.98
17521;BME280;8878;-33.370;-70.552;2023-01-27T11:35:09;91959.56;;;21.92;35.50
17521;BME280;8878;-33.370;-70.552;2023-01-27T11:37:40;91967.63;;;21.67;36.25
17521;BME280;8878;-33.370;-70.552;2023-01-27T11:40:20;91968.09;;;21.69;36.14
17521;BME280;8878;-33.370;-70.552;2023-01-27T11:42:52;91963.75;;;21.40;36.69
17521;BME280;8878;-33.370;-70.552;2023-01-27T11:45:25;91969.13;;;21.16;34.68
17521;BME280;8878;-33.370;-70.552;2023-01-27T11:47:58;91969.03;;;21.37;33.69
17521;BME280;8878;-33.370;-70.552;2023-01-27T11:50:31;91981.94;;;21.10;33.17
17521;BME280;8878;-33.370;-70.552;2023-01-27T11:53:11;91970.91;;;21.61;32.61
17521;BME280;8878;-33.370;-70.552;2023-01-27T11:55:42;91980.19;;;21.39;32.08
17521;BME280;8878;-33.370;-70.552;2023-01-27T11:58:20;91978.97;;;21.24;33.36
17521;BME280;8878;-33.370;-70.552;2023-01-27T12:00:55;91979.88;;;21.53;33.84
17521;BME280;8878;-33.370;-70.552;2023-01-27T12:03:32;91971.38;;;21.51;34.00
17521;BME280;8878;-33.370;-70.552;2023-01-27T12:06:13;91982.19;;;21.78;34.95
17521;BME280;8878;-33.370;-70.552;2023-01-27T12:08:45;91980.38;;;22.07;34.52
17521;BME280;8878;-33.370;-70.552;2023-01-27T12:11:20;91985.28;;;22.05;34.59
17521;BME280;8878;-33.370;-70.552;2023-01-27T12:13:54;91973.06;;;22.47;34.81
17521;BME280;8878;-33.370;-70.552;2023-01-27T12:16:27;91977.56;;;22.43;33.77
17521;BME280;8878;-33.370;-70.552;2023-01-27T12:19:03;91981.75;;;22.56;33.68
17521;BME280;8878;-33.370;-70.552;2023-01-27T12:21:36;91982.00;;;22.23;34.26
17521;BME280;8878;-33.370;-70.552;2023-01-27T12:24:16;91977.16;;;22.29;33.22
17521;BME280;8878;-33.370;-70.552;2023-01-27T12:26:48;91984.84;;;22.43;32.40
17521;BME280;8878;-33.370;-70.552;2023-01-27T12:29:24;91989.88;;;22.72;32.33
17521;BME280;8878;-33.370;-70.552;2023-01-27T12:31:56;91983.47;;;22.77;32.05
17521;BME280;8878;-33.370;-70.552;2023-01-27T12:34:29;91981.88;;;23.03;31.06
17521;BME280;8878;-33.370;-70.552;2023-01-27T12:37:03;91982.56;;;23.32;30.58
17521;BME280;8878;-33.370;-70.552;2023-01-27T12:39:40;91991.25;;;23.41;31.54
17521;BME280;8878;-33.370;-70.552;2023-01-27T12:42:38;91992.81;;;23.26;30.54
17521;BME280;8878;-33.370;-70.552;2023-01-27T12:45:24;91995.44;;;23.23;31.15
17521;BME280;8878;-33.370;-70.552;2023-01-27T12:48:01;91990.97;;;22.99;31.67
17521;BME280;8878;-33.370;-70.552;2023-01-27T12:50:52;91993.25;;;23.13;31.18
17521;BME280;8878;-33.370;-70.552;2023-01-27T12:53:23;91995.97;;;23.28;30.65
17521;BME280;8878;-33.370;-70.552;2023-01-27T12:55:57;91998.47;;;23.37;30.92
17521;BME280;8878;-33.370;-70.552;2023-01-27T12:58:32;92000.38;;;23.68;31.90
17521;BME280;8878;-33.370;-70.552;2023-01-27T13:01:07;92002.22;;;23.64;31.55
17521;BME280;8878;-33.370;-70.552;2023-01-27T13:03:50;92004.38;;;23.74;30.74
17521;BME280;8878;-33.370;-70.552;2023-01-27T13:06:28;91998.28;;;23.77;30.57
17521;BME280;8878;-33.370;-70.552;2023-01-27T13:08:59;92001.50;;;24.17;30.15
17521;BME280;8878;-33.370;-70.552;2023-01-27T13:11:33;92006.88;;;24.17;29.66